Antioch, Illinois
Current Conditions -  °F | °C
As of 6:53 AM on Thursday 30 Oct 2014 (Local Time) from KENW Reporting Station
Clear Clear  
Wind Chill: 35°   Ceiling: Unl
Heat Index: 35°   Visibility: 10mi
Dew Point: 32°   Wind: 3mph
Humidity: 89%   Direction: 220°SW
Pressure: 30.12"   Gusts: NA
Location:  42.48°N, 88.1°W
Report Text: KENW 301153Z 22003KT 10SM CLR 02/00 A3012 RMK AO2 SLP206 T00170000 10017 21011 53001
Loading
Personal Weather Stations






























Interactive Weather Map
Tropical Storm Tracking
New forecast layout! Learn more

10-Day Weather Forecast

Advertisements
Track Severe Weather on mobile